Time;durP1;ratioP1;P1;durP2;ratioP2;P2;SDS_P1;SDS_P2;PMS_P1;PMS_P2;Temp;Humidity;BMP_temperature;BMP_pressure;BME280_temperature;BME280_humidity;BME280_pressure;Samples;Min_cycle;Max_cycle;Signal;HPM_P1;HPM_P2
2023/10/19 15:18:27;;;;;;;5.00;2.47;;;;;;;22.78;58.03;96451.94;4972130;23;20280;-74
2023/10/19 15:20:53;;;;;;;7.40;2.75;;;;;;;22.78;58.58;96443.94;4950323;28;20372;-74
2023/10/19 15:23:18;;;;;;;7.10;2.85;;;;;;;22.79;58.66;96443.78;4948010;29;20042;-74
2023/10/19 15:25:44;;;;;;;6.57;2.40;;;;;;;22.80;58.68;96442.78;4938126;29;20092;-74
2023/10/19 15:28:10;;;;;;;5.95;2.60;;;;;;;22.80;58.52;96429.47;4951188;29;20027;-73
2023/10/19 15:30:36;;;;;;;5.50;2.50;;;;;;;22.79;59.07;96435.81;4975531;28;20066;-74
2023/10/19 15:33:02;;;;;;;6.85;3.10;;;;;;;22.79;58.74;96425.19;4976576;28;20097;-75
2023/10/19 15:35:27;;;;;;;9.27;3.40;;;;;;;22.80;58.81;96425.97;4972288;28;20431;-75
2023/10/19 15:37:56;;;;;;;8.23;2.83;;;;;;;22.79;58.79;96419.84;4939730;29;20053;-75
2023/10/19 15:40:23;;;;;;;9.02;3.00;;;;;;;22.79;58.72;96414.53;4957057;29;20031;-75
2023/10/19 15:42:49;;;;;;;5.53;2.90;;;;;;;22.80;58.78;96408.22;4957160;29;20399;-76
2023/10/19 15:45:18;;;;;;;6.88;3.00;;;;;;;22.83;59.24;96406.19;4956862;29;20019;-75
2023/10/19 15:47:44;;;;;;;6.22;2.60;;;;;;;22.82;58.96;96409.88;4956981;29;20114;-75
2023/10/19 15:50:12;;;;;;;5.93;2.63;;;;;;;22.83;58.65;96395.56;4956687;29;20070;-75
2023/10/19 15:52:42;;;;;;;5.00;2.47;;;;;;;22.84;59.02;96389.22;4952053;29;20495;-75
2023/10/19 15:55:08;;;;;;;5.95;3.10;;;;;;;22.83;59.12;96390.25;4937471;29;20487;-75
2023/10/19 15:57:34;;;;;;;6.18;2.83;;;;;;;22.84;58.88;96381.25;4937605;29;20047;-74
2023/10/19 15:59:59;;;;;;;6.82;2.75;;;;;;;22.84;58.76;96384.75;4966820;28;20038;-74
2023/10/19 16:02:24;;;;;;;4.35;2.30;;;;;;;22.86;58.51;96384.56;4975668;28;20030;-75
2023/10/19 16:04:50;;;;;;;6.80;2.85;;;;;;;22.86;58.68;96376.59;4975842;28;20051;-74
2023/10/19 16:07:15;;;;;;;6.03;2.78;;;;;;;22.87;58.49;96380.91;4975402;28;20486;-74
2023/10/19 16:09:42;;;;;;;6.40;2.63;;;;;;;22.86;58.78;96384.56;4975975;28;20034;-75
2023/10/19 16:12:09;;;;;;;6.88;2.88;;;;;;;22.83;58.79;96376.94;4975765;28;20034;-75
2023/10/19 16:14:36;;;;;;;6.95;2.60;;;;;;;22.83;58.74;96368.97;4975688;28;20030;-74
2023/10/19 16:17:04;;;;;;;6.80;2.60;;;;;;;22.83;58.79;96385.75;4975217;28;20043;-74
2023/10/19 16:19:30;;;;;;;5.75;2.65;;;;;;;22.84;58.58;96370.63;4974899;28;20070;-75
2023/10/19 16:21:57;;;;;;;6.90;2.80;;;;;;;22.82;58.53;96356.69;4956313;29;20027;-75
2023/10/19 16:24:23;;;;;;;6.07;2.65;;;;;;;22.78;59.13;96350.91;4956302;29;20027;-74
2023/10/19 16:26:51;;;;;;;7.15;3.15;;;;;;;22.77;58.88;96350.09;4956114;29;20396;-75
2023/10/19 16:29:16;;;;;;;6.57;3.17;;;;;;;22.74;59.06;96339.81;4938987;29;20035;-75
2023/10/19 16:31:43;;;;;;;6.78;2.55;;;;;;;22.73;58.90;96338.19;4955764;29;20026;-74
2023/10/19 16:34:12;;;;;;;6.75;3.08;;;;;;;22.71;59.09;96326.88;4953193;28;20027;-74
2023/10/19 16:36:39;;;;;;;5.63;2.83;;;;;;;22.70;58.83;96327.91;4947286;29;20023;-74
2023/10/19 16:39:05;;;;;;;6.95;2.95;;;;;;;22.66;59.08;96319.47;4942920;29;20027;-75
2023/10/19 16:41:31;;;;;;;5.47;2.25;;;;;;;22.65;59.06;96309.00;4936517;29;20027;-75
2023/10/19 16:43:56;;;;;;;6.18;2.67;;;;;;;22.63;59.01;96289.78;4954420;29;20047;-72
2023/10/19 16:46:23;;;;;;;5.82;2.45;;;;;;;22.63;58.91;96285.28;4971373;28;20098;-75
2023/10/19 16:48:48;;;;;;;6.13;2.50;;;;;;;22.67;58.97;96256.53;4975031;28;20038;-76
2023/10/19 16:51:14;;;;;;;6.90;3.10;;;;;;;22.64;58.90;96251.56;4964433;28;20023;-75
2023/10/19 16:53:39;;;;;;;7.75;3.25;;;;;;;22.63;58.98;96244.59;4955435;28;20435;-75
2023/10/19 16:56:04;;;;;;;5.22;2.35;;;;;;;22.64;58.78;96228.47;4938364;29;20029;-75
2023/10/19 16:58:31;;;;;;;6.18;2.35;;;;;;;22.65;59.26;96230.13;4938356;29;20015;-74
2023/10/19 17:00:56;;;;;;;7.78;2.35;;;;;;;22.64;58.91;96232.97;4937837;29;20514;-74
2023/10/19 17:03:22;;;;;;;6.63;2.60;;;;;;;22.64;58.75;96215.19;4954068;28;20027;-75
2023/10/19 17:05:48;;;;;;;4.78;2.50;;;;;;;22.62;58.98;96203.91;4974877;28;20023;-74
2023/10/19 17:08:13;;;;;;;6.65;2.60;;;;;;;22.62;58.80;96213.72;4949711;28;20030;-75
2023/10/19 17:10:39;;;;;;;5.50;2.60;;;;;;;22.61;58.80;96212.09;4955389;29;20372;-75
2023/10/19 17:13:05;;;;;;;6.60;3.00;;;;;;;22.60;58.81;96210.41;4955403;29;20375;-74
2023/10/19 17:15:33;;;;;;;6.88;2.45;;;;;;;22.60;58.78;96213.06;4954921;29;20372;-74
2023/10/19 17:17:59;;;;;;;6.22;2.53;;;;;;;22.59;58.87;96214.91;4954962;29;20130;-74
2023/10/19 17:20:27;;;;;;;7.60;2.75;;;;;;;22.59;59.05;96219.38;4955242;29;20479;-74
2023/10/19 17:22:54;;;;;;;5.28;2.65;;;;;;;22.57;59.00;96222.22;4954950;28;20029;-74
2023/10/19 17:25:20;;;;;;;5.68;2.42;;;;;;;22.59;58.69;96211.41;4955091;29;20106;-74
2023/10/19 17:27:45;;;;;;;6.35;2.78;;;;;;;22.56;59.12;96203.84;4954984;28;20130;-74
2023/10/19 17:30:13;;;;;;;5.90;2.40;;;;;;;22.56;58.97;96198.50;4954671;29;20031;-74
2023/10/19 17:32:39;;;;;;;5.53;2.53;;;;;;;22.55;58.81;96195.03;4954802;28;20114;-74
2023/10/19 17:35:05;;;;;;;6.57;3.00;;;;;;;22.53;59.19;96200.50;4954931;29;20498;-74
2023/10/19 17:37:30;;;;;;;5.40;2.67;;;;;;;22.53;58.93;96205.81;4954756;29;20031;-73
2023/10/19 17:39:56;;;;;;;4.78;2.40;;;;;;;22.51;58.94;96213.13;4954654;29;20031;-74
2023/10/19 17:42:22;;;;;;;7.25;3.05;;;;;;;22.51;59.20;96214.94;4954835;29;20035;-73
2023/10/19 17:44:47;;;;;;;5.63;2.55;;;;;;;22.51;58.77;96222.94;4959148;28;20101;-74
2023/10/19 17:47:14;;;;;;;6.90;2.55;;;;;;;22.50;59.07;96227.44;4973761;28;20125;-74
2023/10/19 17:49:40;;;;;;;6.75;2.55;;;;;;;22.50;58.97;96232.75;4974301;28;20050;-74
2023/10/19 17:52:06;;;;;;;6.35;2.30;;;;;;;22.50;59.01;96232.75;4956547;28;20470;-74
2023/10/19 17:54:31;;;;;;;6.10;2.70;;;;;;;22.51;58.89;96242.34;4973955;28;20027;-74
2023/10/19 17:56:56;;;;;;;4.80;2.05;;;;;;;22.51;59.10;96250.31;4973828;28;20510;-74
2023/10/19 17:59:22;;;;;;;4.38;2.30;;;;;;;22.50;59.02;96248.69;4965569;28;20023;-75
2023/10/19 18:01:50;;;;;;;4.30;1.98;;;;;;;22.49;59.09;96249.69;4954707;29;20347;-75
2023/10/19 18:04:17;;;;;;;5.55;2.60;;;;;;;22.49;58.96;96236.41;4954684;29;20498;-74
2023/10/19 18:06:42;;;;;;;4.10;2.40;;;;;;;22.48;59.10;96218.78;4954236;29;20035;-74
2023/10/19 18:09:08;;;;;;;4.55;2.28;;;;;;;22.49;58.95;96209.00;4960042;28;20110;-74
2023/10/19 18:11:34;;;;;;;6.43;2.45;;;;;;;22.47;58.92;96201.22;4973440;28;20023;-74
2023/10/19 18:14:00;;;;;;;3.78;2.20;;;;;;;22.48;58.91;96192.22;4973210;28;20414;-74
2023/10/19 18:16:25;;;;;;;4.70;2.20;;;;;;;22.48;59.09;96186.91;4973437;28;20081;-74
2023/10/19 18:18:51;;;;;;;5.05;2.33;;;;;;;22.46;58.99;96178.31;4970246;28;20550;-74
2023/10/19 18:21:18;;;;;;;4.85;2.60;;;;;;;22.47;59.16;96177.31;4954052;29;20023;-75
2023/10/19 18:23:46;;;;;;;4.25;2.20;;;;;;;22.47;58.99;96179.97;4954192;29;20027;-74
2023/10/19 18:26:15;;;;;;;4.00;2.30;;;;;;;22.45;58.88;96181.97;4953892;29;20031;-74
2023/10/19 18:28:43;;;;;;;5.53;2.63;;;;;;;22.46;59.18;96182.81;4954442;28;20114;-75
2023/10/19 18:31:10;;;;;;;4.50;2.53;;;;;;;22.47;59.08;96192.44;4970149;28;20033;-75
2023/10/19 18:33:36;;;;;;;6.13;2.70;;;;;;;22.45;59.13;96189.97;4973423;28;20105;-75
2023/10/19 18:36:08;;;;;;;3.88;2.25;;;;;;;22.46;59.17;96188.94;4956463;28;20032;-74
2023/10/19 18:38:34;;;;;;;5.03;2.45;;;;;;;22.45;59.04;96187.28;4953816;29;20068;-75
2023/10/19 18:41:05;;;;;;;5.30;2.35;;;;;;;22.44;59.12;96179.50;4954162;29;20031;-75
2023/10/19 18:43:32;;;;;;;4.60;2.10;;;;;;;22.43;58.97;96176.03;4953679;29;20034;-74
2023/10/19 18:45:58;;;;;;;4.53;2.67;;;;;;;22.43;59.38;96173.38;4951817;28;20027;-74
2023/10/19 18:48:24;;;;;;;4.55;2.20;;;;;;;22.43;59.04;96178.69;4973455;28;20174;-75
2023/10/19 18:51:03;;;;;;;4.88;2.33;;;;;;;22.44;59.16;96167.06;4972977;28;20097;-75
2023/10/19 18:53:30;;;;;;;5.22;2.55;;;;;;;22.43;59.12;96162.75;4955716;28;20026;-75
2023/10/19 18:55:56;;;;;;;5.95;2.45;;;;;;;22.43;59.28;96168.06;4942440;29;20035;-75
2023/10/19 18:58:23;;;;;;;4.97;2.80;;;;;;;22.42;59.24;96182.34;4957393;29;20035;-74
2023/10/19 19:00:57;;;;;;;4.78;2.33;;;;;;;22.43;59.20;96181.34;4957513;29;20035;-75
2023/10/19 19:03:24;;;;;;;5.82;2.45;;;;;;;22.41;59.14;96193.97;4957614;29;20031;-74
2023/10/19 19:05:57;;;;;;;4.82;2.38;;;;;;;22.42;59.31;96198.28;4969492;28;20035;-75
2023/10/19 19:08:24;;;;;;;5.90;2.53;;;;;;;22.42;59.38;96208.09;4969178;28;20471;-75
2023/10/19 19:10:49;;;;;;;6.30;2.53;;;;;;;22.42;59.20;96208.91;4953582;28;20491;-75
2023/10/19 19:13:15;;;;;;;5.18;2.90;;;;;;;22.42;59.44;96224.03;4956097;28;20039;-73
2023/10/19 19:15:41;;;;;;;4.93;2.67;;;;;;;22.43;59.39;96226.50;4959701;28;20403;-75
2023/10/19 19:18:06;;;;;;;5.97;2.65;;;;;;;22.42;59.33;96240.78;4955355;28;20511;-75
2023/10/19 19:20:32;;;;;;;4.57;2.30;;;;;;;22.42;59.47;96246.09;4956337;28;20072;-74
2023/10/19 19:22:57;;;;;;;5.32;2.67;;;;;;;22.42;59.46;96256.72;4956505;28;20475;-75
2023/10/19 19:25:23;;;;;;;5.38;2.90;;;;;;;22.40;59.36;96261.41;4956909;28;20553;-75
2023/10/19 19:27:48;;;;;;;4.82;2.58;;;;;;;22.39;59.25;96267.72;4930052;29;20114;-75
2023/10/19 19:30:14;;;;;;;3.53;1.98;;;;;;;22.37;59.56;96262.59;4953303;28;20498;-74
2023/10/19 19:32:39;;;;;;;4.97;2.33;;;;;;;22.37;59.33;96251.97;4954993;28;20102;-75
2023/10/19 19:35:05;;;;;;;6.55;3.40;;;;;;;22.37;59.45;96264.44;4953876;28;20126;-75
2023/10/19 19:37:35;;;;;;;5.45;2.22;;;;;;;22.38;59.46;96256.25;4955766;28;20031;-74
2023/10/19 19:40:02;;;;;;;6.13;3.00;;;;;;;22.38;59.69;96250.13;4952654;28;20086;-75
2023/10/19 19:42:28;;;;;;;5.43;2.40;;;;;;;22.38;59.67;96245.63;4951049;28;20491;-75
2023/10/19 19:44:53;;;;;;;6.70;2.72;;;;;;;22.38;59.69;96247.47;4938912;28;20086;-75
2023/10/19 19:47:18;;;;;;;5.80;2.85;;;;;;;22.38;59.53;96266.06;4956074;28;20509;-75
2023/10/19 19:49:44;;;;;;;6.85;2.80;;;;;;;22.39;59.60;96270.38;4954194;28;20110;-74
2023/10/19 19:52:10;;;;;;;6.85;2.88;;;;;;;22.36;59.54;96265.41;4955506;28;20027;-74
2023/10/19 19:54:35;;;;;;;5.97;2.47;;;;;;;22.38;59.46;96276.69;4955760;28;20236;-74
2023/10/19 19:57:01;;;;;;;4.82;2.47;;;;;;;22.37;59.81;96269.75;4938462;29;20113;-73
2023/10/19 19:59:28;;;;;;;5.22;2.50;;;;;;;22.36;59.74;96268.06;4955431;28;20031;-75
2023/10/19 20:01:53;;;;;;;4.25;2.72;;;;;;;22.37;59.73;96275.06;4955378;28;20559;-74
2023/10/19 20:04:19;;;;;;;5.00;2.40;;;;;;;22.37;59.63;96283.03;4955199;28;20106;-75
2023/10/19 20:06:46;;;;;;;5.25;2.90;;;;;;;22.36;59.60;96281.34;4954082;28;20043;-75
2023/10/19 20:09:11;;;;;;;4.55;2.42;;;;;;;22.37;59.71;96293.66;4953892;28;20035;-74
2023/10/19 20:11:39;;;;;;;5.05;2.58;;;;;;;22.37;59.52;96291.00;4955393;28;20039;-74
2023/10/19 20:14:06;;;;;;;5.05;2.58;;;;;;;22.37;59.54;96309.59;4955274;28;20059;-75
2023/10/19 20:16:32;;;;;;;5.55;2.60;;;;;;;22.36;59.70;96307.91;4954913;28;20051;-74
2023/10/19 20:18:58;;;;;;;4.82;2.53;;;;;;;22.37;59.54;96317.56;4966964;28;20498;-75
2023/10/19 20:21:24;;;;;;;5.10;2.63;;;;;;;22.36;59.33;96326.50;4955675;29;20031;-74
2023/10/19 20:23:49;;;;;;;4.95;2.90;;;;;;;22.36;59.38;96330.00;4958110;28;20042;-75
2023/10/19 20:26:15;;;;;;;6.35;2.70;;;;;;;22.36;59.48;96327.34;4955616;28;20098;-75
2023/10/19 20:28:41;;;;;;;4.68;2.47;;;;;;;22.36;59.57;96311.41;4955826;29;20435;-75
2023/10/19 20:31:06;;;;;;;5.57;2.45;;;;;;;22.36;59.46;96307.91;4955746;29;20035;-74
2023/10/19 20:33:31;;;;;;;5.53;2.53;;;;;;;22.36;59.39;96310.56;4955649;28;20023;-75
2023/10/19 20:35:57;;;;;;;4.32;2.33;;;;;;;22.35;59.38;96314.22;4955777;29;20041;-75
2023/10/19 20:38:23;;;;;;;5.80;2.53;;;;;;;22.34;59.68;96312.59;4955063;28;20102;-75
2023/10/19 20:40:51;;;;;;;6.55;2.58;;;;;;;22.34;59.60;96299.31;4955876;29;20058;-75
2023/10/19 20:43:18;;;;;;;4.75;2.70;;;;;;;22.35;59.56;96324.84;4955766;29;20070;-74
2023/10/19 20:45:51;;;;;;;5.90;2.83;;;;;;;22.34;59.57;96323.22;4938249;29;20118;-75
2023/10/19 20:48:17;;;;;;;5.97;2.53;;;;;;;22.33;59.57;96298.47;4955649;29;20035;-74
2023/10/19 20:50:44;;;;;;;5.05;2.40;;;;;;;22.33;59.47;96316.25;4949053;28;20451;-75
2023/10/19 20:53:10;;;;;;;5.03;2.40;;;;;;;22.31;59.57;96313.78;4919067;29;20031;-75
2023/10/19 20:55:37;;;;;;;4.78;2.70;;;;;;;22.33;59.37;96322.38;4950498;28;20117;-74
2023/10/19 20:58:03;;;;;;;7.18;2.90;;;;;;;22.32;59.52;96325.22;4954943;28;20020;-76
2023/10/19 21:00:28;;;;;;;5.10;2.65;;;;;;;22.32;59.47;96325.22;4955426;28;20030;-75
2023/10/19 21:02:54;;;;;;;5.35;2.50;;;;;;;22.32;59.44;96325.22;4938176;29;20051;-75
2023/10/19 21:05:19;;;;;;;6.22;2.67;;;;;;;22.31;59.59;96323.56;4955240;29;20055;-74
2023/10/19 21:07:46;;;;;;;5.10;2.30;;;;;;;22.31;59.39;96329.72;4954540;29;20491;-75
2023/10/19 21:10:12;;;;;;;6.25;2.72;;;;;;;22.32;59.66;96326.03;4972614;28;20446;-75
2023/10/19 21:12:41;;;;;;;5.88;2.60;;;;;;;22.32;59.45;96325.22;4974643;28;20082;-74
2023/10/19 21:15:17;;;;;;;6.75;2.83;;;;;;;22.31;59.55;96318.25;4957254;28;20022;-75
2023/10/19 21:17:44;;;;;;;5.00;2.25;;;;;;;22.30;59.59;96306.81;4974365;28;20058;-75
2023/10/19 21:20:14;;;;;;;4.82;2.28;;;;;;;22.31;59.44;96291.69;4955794;28;20094;-75
2023/10/19 21:22:42;;;;;;;5.47;2.47;;;;;;;22.31;59.56;96289.88;4954826;29;20023;-74
2023/10/19 21:25:13;;;;;;;4.18;2.20;;;;;;;22.31;59.32;96270.44;4954180;28;20499;-74
2023/10/19 21:27:40;;;;;;;4.25;2.38;;;;;;;22.31;59.61;96259.81;4954657;29;20031;-74
2023/10/19 21:30:07;;;;;;;5.28;2.33;;;;;;;22.30;59.75;96258.16;4955034;29;20026;-75
2023/10/19 21:32:33;;;;;;;5.95;2.50;;;;;;;22.30;59.58;96250.19;4954702;28;20079;-74
2023/10/19 21:34:59;;;;;;;4.22;2.20;;;;;;;22.29;59.38;96229.97;4958426;28;20027;-74
2023/10/19 21:37:26;;;;;;;4.63;2.83;;;;;;;22.27;59.70;96223.00;4973485;28;20023;-75
2023/10/19 21:39:51;;;;;;;4.15;2.22;;;;;;;22.26;59.65;96244.44;4974083;28;20027;-75
2023/10/19 21:42:17;;;;;;;6.53;2.30;;;;;;;22.28;59.67;96250.41;4966953;28;20035;-75
2023/10/19 21:44:45;;;;;;;4.30;2.35;;;;;;;22.27;59.43;96249.56;4956154;28;20082;-75
2023/10/19 21:47:11;;;;;;;4.05;2.10;;;;;;;22.29;59.33;96224.66;4973707;28;20022;-74
2023/10/19 21:49:37;;;;;;;5.82;2.17;;;;;;;22.26;59.48;96216.03;4957367;28;20072;-75
2023/10/19 21:52:03;;;;;;;5.03;2.17;;;;;;;22.24;59.81;96207.41;4937244;29;20063;-75
2023/10/19 21:54:29;;;;;;;5.88;2.42;;;;;;;22.26;59.63;96216.03;4954158;28;20031;-74
2023/10/19 21:56:54;;;;;;;4.15;2.28;;;;;;;22.27;59.46;96223.00;4954464;29;20038;-75
2023/10/19 21:59:20;;;;;;;4.53;2.28;;;;;;;22.27;59.65;96228.31;4954627;29;20534;-75
2023/10/19 22:01:46;;;;;;;4.82;2.08;;;;;;;22.26;59.58;96218.69;4954828;29;20031;-75
2023/10/19 22:04:12;;;;;;;4.55;2.42;;;;;;;22.27;59.34;96185.81;4954425;29;20094;-75
